Boston, MA

9:02 PM EST on December 18, 2014 (GMT -0500)
Southie | Change Station
CLOSE
Current Station
Personal Weather Station
Location: Boston, MA
Elevation: 33 ft
Nearby Weather Stations

Elev 33 ft 42.34 °N, 71.04 °W | Updated 1 second ago

Mostly Cloudy
Mostly Cloudy
39.0 °F
Feels Like 32 °F
N
12.1
Wind Variable Wind from WNW
Gusts 12.1 mph

Today
High -- | Low -- °F
--% Chance of Precip.
Yesterday
High -- | Low -- °F
Precip. -- in
7:08 AM 4:13 PM
Waning Crescent, 11% visible
Pressure 29.85 in
Visibility 10.0 miles
Clouds Mostly Cloudy 4500 ft
Windchill 32 °F
Dew Point 30 °F
Humidity 69%
Rainfall 0.00 in
Snow Depth Not available.
UV 0 out of 12
Pollen .10 out of 12
Air Quality Not available.
Flu Activity Not available.
METAR KBOS 190154Z 30009KT 10SM BKN045 04/M02 A2985 RMK AO2 SLP107 T00391022

More Conditions Fewer Conditions

Pressure 29.85 in
Visibility 10.0 miles
Clouds Mostly Cloudy 4500 ft
Windchill 32 °F
Dew Point 30 °F
Humidity 69%
Rainfall 0.00 in
Snow Depth Not available.
UV 0 out of 12
Pollen .10 out of 12
Air Quality Not available.
Flu Activity Not available.
METAR KBOS 190154Z 30009KT 10SM BKN045 04/M02 A2985 RMK AO2 SLP107 T00391022

More Conditions Fewer Conditions

10-Day Weather Forecast

Almanac

Astronomy

Dec. 18, 2014 Rise Set
Actual Time
Civil Twilight
Nautical Twilight
Astronomical Twilight
Moon
Length of Visible Light
Length of Day
Tomorrow will be .
, % of the Moon is Illuminated

Today's Extremes

State Highs State Lows

Community

WunderPhotos

Upload Photos

1,779,036 photos uploaded!

WunderBlogs® & News

Nearby

Air Quality

  Air Quality AQ Index Pollutant
Not available.

Snow Depth

Station Depth Elevation

Earthquake Activity

City Distance Mag. Time & Date
Minimum magnitude displayed is 2.5.

Coastal Water Temperatures

Place Temperature

Nearby Weather Stations